Time;durP1;ratioP1;P1;durP2;ratioP2;P2;SDS_P1;SDS_P2;PMS_P1;PMS_P2;Temp;Humidity;BMP_temperature;BMP_pressure;BME280_temperature;BME280_humidity;BME280_pressure;Samples;Min_cycle;Max_cycle;Signal;HPM_P1;HPM_P2
2022/01/15 00:03:30;;;;;;;;;;;0.30;99.90;;;-1.16;100.00;96909.00;10475353;28;1834;-69
2022/01/15 00:08:33;;;;;;;;;;;0.20;99.90;;;-1.19;100.00;96898.81;10450276;28;1861;-69
2022/01/15 00:13:39;;;;;;;;;;;0.20;99.90;;;-1.30;100.00;96893.91;10460400;28;1974;-69
2022/01/15 00:18:45;;;;;;;;;;;0.10;99.90;;;-1.20;100.00;96899.81;10449126;28;1822;-68
2022/01/15 00:23:48;;;;;;;;;;;0.10;99.90;;;-1.31;100.00;96894.91;10462899;28;1830;-68
2022/01/15 00:28:52;;;;;;;;;;;0.10;99.90;;;-1.33;100.00;96894.28;10454347;28;1974;-70
2022/01/15 00:33:55;;;;;;;;;;;0.10;99.90;;;-1.46;100.00;96894.00;10457627;28;1985;-68
2022/01/15 00:38:58;;;;;;;;;;;-0.10;99.90;;;-1.49;100.00;96899.59;10456570;28;1765;-70
2022/01/15 00:44:01;;;;;;;;;;;-0.20;99.90;;;-1.48;100.00;96899.41;10454178;28;1947;-69
2022/01/15 00:49:04;;;;;;;;;;;-0.10;99.90;;;-1.50;100.00;96887.41;10458975;28;1899;-70
2022/01/15 00:54:07;;;;;;;;;;;-0.20;99.90;;;-1.59;100.00;96885.78;10462427;28;1926;-70
2022/01/15 00:59:10;;;;;;;;;;;-0.20;99.90;;;-1.69;100.00;96886.81;10471129;28;1877;-71
2022/01/15 01:04:13;;;;;;;;;;;-0.30;99.90;;;-1.75;100.00;96887.50;10464608;28;1893;-69
2022/01/15 01:09:16;;;;;;;;;;;-0.30;99.90;;;-1.80;100.00;96889.81;10461857;28;1917;-69
2022/01/15 01:25:02;;;;;;;;;;;-0.40;99.90;;;-1.94;100.00;96879.97;10467259;28;1852;-70
2022/01/15 01:30:11;;;;;;;;;;;-0.50;99.90;;;-1.76;100.00;96880.56;10459959;28;1910;-69
2022/01/15 01:35:19;;;;;;;;;;;-0.40;99.90;;;-1.79;100.00;96874.81;10463004;28;1873;-68
2022/01/15 01:40:26;;;;;;;;;;;-0.60;99.90;;;-1.88;100.00;96868.75;10464813;28;1814;-69
2022/01/15 01:45:29;;;;;;;;;;;-0.60;99.90;;;-1.90;100.00;96865.47;10464940;28;1829;-70
2022/01/15 01:50:33;;;;;;;;;;;-0.40;99.90;;;-2.04;100.00;96859.06;10449826;28;1975;-69
2022/01/15 01:55:36;;;;;;;;;;;-0.50;99.90;;;-1.99;100.00;96855.91;10463827;28;1857;-70
2022/01/15 02:00:39;;;;;;;;;;;-0.50;99.90;;;-2.04;100.00;96842.41;10464192;28;1846;-69
2022/01/15 02:05:43;;;;;;;;;;;-0.50;99.90;;;-2.11;100.00;96841.47;10460723;28;1798;-69
2022/01/15 02:10:46;;;;;;;;;;;-0.60;99.90;;;-2.11;100.00;96831.75;10457499;28;2264;-69
2022/01/15 02:15:50;;;;;;;;;;;-0.70;99.90;;;-2.13;100.00;96827.63;10463095;28;1917;-69
2022/01/15 02:23:31;;;;;;;;;;;-0.80;99.90;;;-2.14;100.00;96836.53;10463002;28;1832;-68
2022/01/15 02:26:31;;;;;;;;;;;-0.80;99.90;;;-2.12;100.00;96821.38;10462290;28;1830;-69
2022/01/15 02:31:36;;;;;;;;;;;-0.90;99.90;;;-2.19;100.00;96814.16;10464408;28;2039;-68
2022/01/15 02:36:40;;;;;;;;;;;-0.90;99.90;;;-2.20;100.00;96804.59;10458082;28;2170;-69
2022/01/15 02:41:42;;;;;;;;;;;-1.00;99.90;;;-2.23;100.00;96815.50;10452881;28;1996;-69
2022/01/15 02:52:06;;;;;;;;;;;-1.00;99.90;;;-2.34;100.00;96804.47;10455469;28;2002;-69
2022/01/15 02:57:09;;;;;;;;;;;-1.00;99.90;;;-2.40;100.00;96795.44;10455579;28;2059;-69
2022/01/15 03:02:12;;;;;;;;;;;;;;;-2.40;100.00;96790.16;10455427;28;2333;-70
2022/01/15 03:07:15;;;;;;;;;;;;;;;-2.33;100.00;96785.88;10461096;28;2368;-69
2022/01/15 03:12:19;;;;;;;;;;;;;;;-2.36;100.00;96775.66;10457914;28;2189;-69
2022/01/15 03:17:22;;;;;;;;;;;;;;;-2.36;100.00;96762.50;10459555;28;2332;-69
2022/01/15 03:22:26;;;;;;;;;;;;;;;-2.41;100.00;96759.56;10456328;28;2363;-68
2022/01/15 03:27:29;;;;;;;;;;;;;;;-2.50;100.00;96756.13;10453646;28;1543;-70
2022/01/15 03:32:32;;;;;;;;;;;;;;;-2.42;100.00;96759.72;10462474;28;1944;-71
2022/01/15 03:37:36;;;;;;;;;;;;;;;-2.52;100.00;96758.09;10460682;28;1924;-70
2022/01/15 03:42:39;;;;;;;;;;;;;;;-2.45;100.00;96752.97;10460660;28;1976;-68
2022/01/15 03:47:42;;;;;;;;;;;;;;;-2.52;100.00;96749.38;10460319;28;1975;-69
2022/01/15 03:52:46;;;;;;;;;;;;;;;-2.49;100.00;96749.84;10461360;28;2481;-69
2022/01/15 03:57:49;;;;;;;;;;;;;;;-2.44;100.00;96749.34;10454096;28;1860;-69
2022/01/15 04:02:53;;;;;;;;;;;;;;;-2.47;100.00;96752.34;10462073;28;2352;-69
2022/01/15 04:07:56;;;;;;;;;;;;;;;-2.51;100.00;96751.84;10459161;28;1945;-68
2022/01/15 04:12:59;;;;;;;;;;;;;;;-2.59;100.00;96749.22;10442639;28;1911;-68
2022/01/15 04:18:03;;;;;;;;;;;;;;;-2.58;100.00;96757.94;10455933;28;2038;-69
2022/01/15 04:23:06;;;;;;;;;;;;;;;-2.61;100.00;96756.50;10461333;28;1953;-69
2022/01/15 04:28:11;;;;;;;;;;;;;;;-2.57;100.00;96754.31;10453653;28;2047;-70
2022/01/15 04:33:15;;;;;;;;;;;;;;;-2.45;100.00;96756.44;10463496;28;2022;-70
2022/01/15 04:38:18;;;;;;;;;;;;;;;-2.38;100.00;96759.22;10468233;28;2030;-70
2022/01/15 04:43:21;;;;;;;;;;;;;;;-2.19;100.00;96752.75;10459906;28;2007;-69
2022/01/15 04:48:25;;;;;;;;;;;;;;;-2.21;100.00;96758.19;10461008;28;1999;-70
2022/01/15 04:53:28;;;;;;;;;;;;;;;-2.27;100.00;96750.16;10456986;28;2034;-71
2022/01/15 04:58:32;;;;;;;;;;;;;;;-2.25;100.00;96756.88;10459484;28;1907;-70
2022/01/15 05:03:35;;;;;;;;;;;;;;;-2.24;100.00;96745.34;10465014;28;1959;-69
2022/01/15 05:08:40;;;;;;;;;;;;;;;-2.25;100.00;96740.25;10459456;28;1907;-70
2022/01/15 05:13:43;;;;;;;;;;;;;;;-2.21;100.00;96750.28;10480847;28;1931;-68
2022/01/15 05:18:46;;;;;;;;;;;;;;;-2.16;100.00;96747.16;10482545;28;1929;-69
2022/01/15 05:23:50;;;;;;;;;;;;;;;-2.21;100.00;96746.84;10466660;28;1987;-70
2022/01/15 05:28:53;;;;;;;;;;;;;;;-2.28;100.00;96753.78;10488758;28;1987;-69
2022/01/15 05:33:57;;;;;;;;;;;;;;;-2.33;100.00;96756.09;10463860;28;2011;-69
2022/01/15 05:39:00;;;;;;;;;;;;;;;-2.45;100.00;96745.09;10456261;28;1979;-69
2022/01/15 05:44:04;;;;;;;;;;;;;;;-2.43;100.00;96748.34;10464439;28;2094;-69
2022/01/15 05:49:08;;;;;;;;;;;;;;;-2.49;100.00;96755.13;10459894;28;2066;-69
2022/01/15 05:54:11;;;;;;;;;;;;;;;-2.49;100.00;96755.13;10459018;28;2102;-70
2022/01/15 05:59:15;;;;;;;;;;;;;;;-2.48;100.00;96755.97;10474743;28;1918;-69
2022/01/15 06:04:19;;;;;;;;;;;;;;;-2.69;100.00;96758.28;10462014;28;1962;-70
2022/01/15 06:09:22;;;;;;;;;;;-1.50;99.90;;;-2.81;100.00;96757.81;10462161;28;1965;-70
2022/01/15 06:14:24;;;;;;;;;;;-1.50;99.90;;;-2.91;100.00;96765.88;10448683;28;2006;-70
2022/01/15 06:19:27;;;;;;;;;;;-1.60;99.90;;;-3.01;100.00;96758.13;10448238;28;1887;-69
2022/01/15 06:24:30;;;;;;;;;;;-1.70;99.90;;;-3.02;100.00;96759.13;10458859;28;2024;-70
2022/01/15 06:29:33;;;;;;;;;;;-1.70;99.90;;;-3.01;100.00;96759.97;10460924;28;1920;-69
2022/01/15 06:34:36;;;;;;;;;;;-1.70;99.90;;;-3.08;100.00;96770.31;10468956;28;1974;-68
2022/01/15 06:39:39;;;;;;;;;;;-1.70;99.90;;;-3.08;100.00;96770.31;10461975;28;1958;-68
2022/01/15 06:44:42;;;;;;;;;;;-1.70;99.90;;;-3.32;100.00;96778.19;10467450;28;2016;-69
2022/01/15 06:49:45;;;;;;;;;;;-1.70;99.90;;;-3.54;100.00;96779.63;10461226;28;2087;-69
2022/01/15 06:54:48;;;;;;;;;;;-2.10;99.90;;;-3.83;100.00;96778.22;10460460;28;2364;-70
2022/01/15 06:59:51;;;;;;;;;;;-2.10;99.90;;;-3.71;100.00;96775.31;10462948;28;2003;-68
2022/01/15 07:04:54;;;;;;;;;;;-2.10;99.90;;;-3.60;100.00;96782.91;10456671;28;2086;-68
2022/01/15 07:09:57;;;;;;;;;;;-2.70;99.90;;;-3.41;100.00;96779.16;10453556;28;2035;-69
2022/01/15 07:15:00;;;;;;;;;;;-2.40;99.90;;;-3.26;100.00;96782.78;10459450;28;1962;-66
2022/01/15 07:20:03;;;;;;;;;;;-2.30;99.90;;;-3.19;100.00;96786.41;10460493;28;1986;-68
2022/01/15 07:25:06;;;;;;;;;;;-2.20;99.90;;;-3.22;100.00;96783.28;10456859;28;1990;-68
2022/01/15 07:30:08;;;;;;;;;;;-2.10;99.90;;;-2.99;100.00;96789.53;10467966;28;1994;-69
2022/01/15 07:35:11;;;;;;;;;;;-2.10;99.90;;;-2.88;100.00;96793.66;10456488;28;1989;-71
2022/01/15 07:40:14;;;;;;;;;;;-1.90;99.90;;;-2.64;100.00;96783.13;10449553;28;2105;-69
2022/01/15 07:45:17;;;;;;;;;;;-1.80;99.90;;;-2.48;100.00;96783.13;10450516;28;2316;-66
2022/01/15 07:50:23;;;;;;;;;;;-1.60;99.90;;;-2.60;100.00;96784.44;10442408;28;2040;-69
2022/01/15 07:55:26;;;;;;;;;;;-1.60;99.90;;;-2.51;100.00;96783.44;10451967;28;2025;-69
2022/01/15 08:00:37;;;;;;;;;;;-1.50;99.90;;;-2.57;100.00;96784.09;10454837;28;2030;-69
2022/01/15 08:05:40;;;;;;;;;;;-1.50;99.90;;;-2.71;100.00;96782.16;10446274;28;2095;-67
2022/01/15 08:10:44;;;;;;;;;;;-1.60;99.90;;;-2.65;100.00;96776.22;10444141;28;1976;-72
2022/01/15 08:15:47;;;;;;;;;;;-1.70;99.90;;;-2.63;100.00;96768.16;10448311;28;2261;-70
2022/01/15 08:20:50;;;;;;;;;;;-1.60;99.90;;;-2.45;100.00;96768.78;10446158;28;2032;-67
2022/01/15 08:25:53;;;;;;;;;;;-1.60;99.90;;;-2.15;100.00;96751.44;10455071;28;2144;-69
2022/01/15 08:30:56;;;;;;;;;;;-1.40;99.90;;;-2.05;100.00;96751.22;10450325;28;2018;-68
2022/01/15 08:35:59;;;;;;;;;;;-1.20;99.90;;;-1.96;100.00;96747.56;10452836;28;1938;-70
2022/01/15 08:41:02;;;;;;;;;;;-1.00;99.90;;;-1.64;100.00;96736.84;10463283;28;2046;-71
2022/01/15 08:46:05;;;;;;;;;;;-0.90;99.90;;;-1.10;100.00;96734.16;10479659;28;2007;-70
2022/01/15 08:51:08;;;;;;;;;;;-0.40;99.90;;;-0.90;100.00;96728.41;10486650;28;2098;-69
2022/01/15 08:56:11;;;;;;;;;;;-0.10;99.90;;;-1.29;100.00;96734.63;10480324;28;2174;-69
2022/01/15 09:01:17;;;;;;;;;;;-0.20;99.90;;;-0.92;100.00;96722.47;10450432;28;2002;-68
2022/01/15 09:06:20;;;;;;;;;;;-0.20;99.90;;;-1.10;100.00;96720.97;10454019;28;2085;-68
2022/01/15 09:11:23;;;;;;;;;;;-0.10;99.90;;;-1.44;100.00;96717.94;10451221;28;2356;-69
2022/01/15 09:16:27;;;;;;;;;;;-0.30;99.90;;;-1.37;100.00;96718.88;10456092;28;2059;-69
2022/01/15 09:21:33;;;;;;;;;;;-0.40;99.90;;;-1.16;100.00;96720.84;10458264;28;1965;-66
2022/01/15 09:26:49;;;;;;;;;;;-0.30;99.90;;;-1.36;100.00;96715.25;10462915;28;2059;-69
2022/01/15 09:31:52;;;;;;;;;;;-0.30;99.90;;;-1.37;100.00;96714.44;10454325;28;2030;-69
2022/01/15 09:36:55;;;;;;;;;;;-0.40;99.90;;;-1.52;100.00;96718.81;10454618;28;2332;-69
2022/01/15 09:41:58;;;;;;;;;;;-0.50;99.90;;;-1.66;100.00;96714.28;10456593;28;2352;-70
2022/01/15 09:47:02;;;;;;;;;;;-0.50;99.90;;;-1.56;100.00;96717.53;10453664;28;1998;-70
2022/01/15 09:52:06;;;;;;;;;;;-0.40;99.90;;;-1.39;100.00;96712.97;10468672;28;2066;-69
2022/01/15 09:57:09;;;;;;;;;;;-0.50;99.90;;;-1.16;100.00;96716.41;10461910;28;2015;-69
2022/01/15 10:02:13;;;;;;;;;;;-0.30;99.90;;;-1.21;100.00;96702.94;10472468;28;2058;-70
2022/01/15 10:07:16;;;;;;;;;;;-0.10;99.90;;;-1.10;100.00;96705.13;10494011;28;2175;-68
2022/01/15 10:12:19;;;;;;;;;;;-0.20;99.90;;;-0.93;100.00;96705.00;10457337;28;1923;-69
2022/01/15 10:17:23;;;;;;;;;;;-0.10;99.90;;;-1.17;100.00;96698.94;10459478;28;1986;-69
2022/01/15 10:22:26;;;;;;;;;;;-0.20;99.90;;;-0.95;100.00;96691.19;10486233;28;1859;-69
2022/01/15 10:27:29;;;;;;;;;;;0.00;99.90;;;-1.21;100.00;96679.19;10459283;28;2061;-69
2022/01/15 10:32:32;;;;;;;;;;;0.00;99.90;;;-1.44;100.00;96691.56;10472783;28;1934;-69
2022/01/15 10:37:37;;;;;;;;;;;-0.20;99.90;;;-1.18;100.00;96683.28;10446641;28;1949;-70
2022/01/15 10:42:40;;;;;;;;;;;0.00;99.90;;;-1.15;100.00;96677.66;10452978;28;1870;-70
2022/01/15 10:47:44;;;;;;;;;;;-0.10;99.90;;;-1.30;100.00;96671.50;10460288;28;1924;-68
2022/01/15 10:52:47;;;;;;;;;;;-0.10;99.90;;;-0.99;100.00;96664.31;10458468;28;2025;-70
2022/01/15 10:57:50;;;;;;;;;;;-0.10;99.90;;;-1.07;100.00;96656.50;10451955;28;1914;-70
2022/01/15 11:02:53;;;;;;;;;;;-0.10;99.90;;;-0.73;100.00;96653.34;10450064;28;1963;-70
2022/01/15 11:07:57;;;;;;;;;;;0.00;99.90;;;-0.67;100.00;96657.06;10453731;28;1989;-70
2022/01/15 11:13:04;;;;;;;;;;;0.20;99.90;;;-0.78;100.00;96649.59;10453777;28;1983;-69
2022/01/15 11:18:07;;;;;;;;;;;0.40;99.90;;;-0.56;100.00;96638.97;10462569;28;1834;-69
2022/01/15 11:23:10;;;;;;;;;;;0.30;99.90;;;-0.32;100.00;96626.44;10457009;28;1906;-69
2022/01/15 11:28:14;;;;;;;;;;;0.60;99.90;;;-0.38;100.00;96624.53;10458222;28;1842;-69
2022/01/15 11:33:17;;;;;;;;;;;0.70;99.90;;;-0.62;100.00;96623.84;10457677;28;1906;-68
2022/01/15 11:38:20;;;;;;;;;;;0.60;99.90;;;-0.31;100.00;96614.91;10469608;28;2103;-69
2022/01/15 11:43:23;;;;;;;;;;;0.60;99.90;;;-0.56;100.00;96611.72;10480676;28;1853;-68
2022/01/15 11:48:27;;;;;;;;;;;0.60;99.90;;;-0.42;100.00;96612.72;10476413;28;2031;-69
2022/01/15 11:53:30;;;;;;;;;;;0.60;99.90;;;-0.40;100.00;96608.88;10474351;28;1931;-70
2022/01/15 11:58:33;;;;;;;;;;;0.60;99.90;;;-0.26;100.00;96604.56;10474856;28;1848;-69
2022/01/15 12:03:36;;;;;;;;;;;0.60;99.90;;;-0.23;100.00;96600.75;10489286;28;1781;-69
2022/01/15 12:08:40;;;;;;;;;;;0.80;99.90;;;-0.39;100.00;96592.00;10460569;28;1865;-69
2022/01/15 12:13:43;;;;;;;;;;;0.90;99.90;;;-0.25;100.00;96598.31;10462591;28;1914;-68
2022/01/15 12:18:46;;;;;;;;;;;0.70;99.90;;;-0.46;100.00;96585.03;10463767;28;1875;-68
2022/01/15 12:23:49;;;;;;;;;;;0.50;99.90;;;-0.41;100.00;96582.66;10461097;28;1965;-69
2022/01/15 12:28:52;;;;;;;;;;;0.60;99.90;;;-0.27;100.00;96574.69;10449706;28;2129;-69
2022/01/15 12:33:55;;;;;;;;;;;0.60;99.90;;;-0.49;100.00;96565.09;10479661;28;1914;-69
2022/01/15 12:38:58;;;;;;;;;;;0.30;99.90;;;-0.30;100.00;96561.88;10459920;28;1850;-68
2022/01/15 12:44:01;;;;;;;;;;;0.60;99.90;;;-0.09;100.00;96566.34;10459618;28;1851;-70
2022/01/15 12:49:05;;;;;;;;;;;0.80;99.90;;;-0.24;100.00;96552.38;10483811;28;1758;-69
2022/01/15 12:54:08;;;;;;;;;;;0.80;99.90;;;-0.06;100.00;96555.41;10488568;28;1955;-68
2022/01/15 12:59:11;;;;;;;;;;;0.80;99.90;;;-0.21;100.00;96543.25;10473318;28;1865;-68
2022/01/15 13:04:15;;;;;;;;;;;0.90;99.90;;;-0.32;100.00;96539.25;10493876;28;1887;-70
2022/01/15 13:09:18;;;;;;;;;;;0.70;99.90;;;-0.17;100.00;96532.13;10493088;28;1760;-70
2022/01/15 13:14:21;;;;;;;;;;;0.70;99.90;;;-0.04;100.00;96513.75;10474499;28;1918;-68
2022/01/15 13:19:25;;;;;;;;;;;0.80;99.90;;;-0.36;100.00;96511.59;10501773;28;1821;-69
2022/01/15 13:24:28;;;;;;;;;;;0.90;99.90;;;-0.35;100.00;96503.47;10498769;28;1983;-69
2022/01/15 13:29:31;;;;;;;;;;;0.70;99.90;;;-0.41;100.00;96513.97;10473530;28;1647;-68
2022/01/15 13:34:36;;;;;;;;;;;0.60;99.90;;;-0.56;100.00;96512.19;10461173;28;1931;-69
2022/01/15 13:39:39;;;;;;;;;;;0.60;99.90;;;-0.33;100.00;96511.22;10477808;28;2071;-69
2022/01/15 13:44:42;;;;;;;;;;;0.60;99.90;;;-0.58;100.00;96502.81;10485995;28;1915;-70
2022/01/15 13:55:07;;;;;;;;;;;0.50;99.90;;;-0.39;100.00;96501.38;10478346;28;1919;-68
2022/01/15 14:00:10;;;;;;;;;;;0.60;99.90;;;-0.32;100.00;96503.13;10477437;28;1945;-69
2022/01/15 14:05:14;;;;;;;;;;;0.60;99.90;;;-0.67;100.00;96498.66;10482133;28;1826;-70
2022/01/15 14:10:18;;;;;;;;;;;0.40;99.90;;;-0.69;100.00;96490.91;10471521;28;1809;-70
2022/01/15 14:15:21;;;;;;;;;;;0.30;99.90;;;-0.59;100.00;96491.44;10483568;28;1938;-68
2022/01/15 14:25:44;;;;;;;;;;;0.30;99.90;;;-0.78;100.00;96492.00;10483488;28;2538;-69
2022/01/15 14:30:50;;;;;;;;;;;0.30;99.90;;;-0.91;100.00;96483.94;10500309;28;1761;-69
2022/01/15 14:35:53;;;;;;;;;;;0.10;99.90;;;-0.91;100.00;96481.31;10489412;28;1898;-68
2022/01/15 14:40:56;;;;;;;;;;;0.10;99.90;;;-0.75;100.00;96481.09;10499059;28;1896;-69
2022/01/15 14:46:09;;;;;;;;;;;0.20;99.90;;;-0.99;100.00;96494.59;10502132;28;1866;-69
2022/01/15 14:51:15;;;;;;;;;;;0.00;99.90;;;-0.92;100.00;96495.50;10484509;28;1778;-70
2022/01/15 14:56:18;;;;;;;;;;;0.00;99.90;;;-1.19;100.00;96495.16;10503694;28;1928;-70
2022/01/15 15:01:21;;;;;;;;;;;0.00;99.90;;;-0.86;100.00;96490.31;10501718;28;1527;-70
2022/01/15 15:06:24;;;;;;;;;;;-0.10;99.90;;;-1.14;100.00;96495.44;10501567;28;1730;-70
2022/01/15 15:11:28;;;;;;;;;;;0.00;99.90;;;-1.19;100.00;96489.06;10487004;28;1861;-69
2022/01/15 15:16:36;;;;;;;;;;;0.00;99.90;;;-1.12;100.00;96488.16;10486489;28;1961;-69
2022/01/15 15:21:39;;;;;;;;;;;0.00;99.90;;;-1.12;100.00;96479.41;10494498;28;1741;-69
2022/01/15 15:26:43;;;;;;;;;;;-0.10;99.90;;;-1.16;100.00;96492.16;10496810;28;1868;-68
2022/01/15 15:31:46;;;;;;;;;;;-0.40;99.90;;;-1.24;100.00;96491.44;10488098;28;1852;-70
2022/01/15 15:36:49;;;;;;;;;;;-0.20;99.90;;;-1.33;100.00;96485.44;10486419;28;1930;-70
2022/01/15 15:41:53;;;;;;;;;;;-0.20;99.90;;;-1.29;100.00;96476.13;10490089;28;1672;-72
2022/01/15 15:46:56;;;;;;;;;;;-0.30;99.90;;;-1.09;100.00;96469.31;10481209;28;1901;-69
2022/01/15 15:51:59;;;;;;;;;;;-0.20;99.90;;;-1.11;100.00;96470.50;10479401;28;2134;-68
2022/01/15 15:57:02;;;;;;;;;;;0.00;99.90;;;-1.12;100.00;96463.59;10494532;28;1898;-69
2022/01/15 16:02:05;;;;;;;;;;;-0.10;99.90;;;-1.00;100.00;96466.59;10493812;28;1852;-69
2022/01/15 16:07:09;;;;;;;;;;;0.10;99.90;;;-0.97;100.00;96468.84;10476773;28;2248;-69
2022/01/15 16:12:12;;;;;;;;;;;0.00;99.90;;;-1.09;100.00;96468.47;10493472;28;1800;-69
2022/01/15 16:17:15;;;;;;;;;;;0.00;99.90;;;-1.09;100.00;96461.38;10486744;28;1997;-69
2022/01/15 16:22:23;;;;;;;;;;;0.00;99.90;;;-0.85;100.00;96470.00;10468492;28;1904;-69
2022/01/15 16:27:26;;;;;;;;;;;0.10;99.90;;;-1.16;100.00;96471.03;10459810;28;1857;-69
2022/01/15 16:32:29;;;;;;;;;;;0.10;99.90;;;-1.24;100.00;96479.06;10467580;28;1887;-69
2022/01/15 16:37:33;;;;;;;;;;;-0.10;99.90;;;-1.03;100.00;96466.94;10473050;28;1918;-70
2022/01/15 16:42:36;;;;;;;;;;;0.00;99.90;;;-1.07;100.00;96449.84;10461538;28;1808;-69
2022/01/15 16:47:39;;;;;;;;;;;0.00;99.90;;;-0.96;100.00;96452.00;10470458;28;1866;-70
2022/01/15 16:52:42;;;;;;;;;;;0.00;99.90;;;-0.90;100.00;96448.63;10467191;28;1807;-69
2022/01/15 16:57:46;;;;;;;;;;;0.20;99.90;;;-1.16;100.00;96447.28;10498665;28;2322;-69
2022/01/15 17:02:49;;;;;;;;;;;0.00;99.90;;;-1.10;100.00;96445.75;10469861;28;2439;-69
2022/01/15 17:07:53;;;;;;;;;;;0.00;99.90;;;-1.14;100.00;96449.78;10462137;28;1832;-69
2022/01/15 17:12:57;;;;;;;;;;;0.00;99.90;;;-0.98;100.00;96446.09;10465053;28;1829;-69
2022/01/15 17:18:00;;;;;;;;;;;0.00;99.90;;;-1.06;100.00;96439.09;10477362;28;1955;-69
2022/01/15 17:23:04;;;;;;;;;;;0.10;99.90;;;-1.04;100.00;96433.63;10467156;28;1857;-71
2022/01/15 17:28:08;;;;;;;;;;;-0.10;99.90;;;-0.96;100.00;96430.88;10474692;28;1891;-68
2022/01/15 17:33:11;;;;;;;;;;;0.00;99.90;;;-0.83;100.00;96421.31;10466038;28;1837;-70
2022/01/15 17:38:14;;;;;;;;;;;0.10;99.90;;;-0.99;100.00;96423.34;10473107;28;1914;-70
2022/01/15 17:43:18;;;;;;;;;;;0.20;99.90;;;-1.01;100.00;96422.72;10492364;28;1814;-70
2022/01/15 17:48:22;;;;;;;;;;;0.10;99.90;;;-1.14;100.00;96424.19;10510037;28;1847;-70
2022/01/15 17:53:26;;;;;;;;;;;0.00;99.90;;;-1.05;100.00;96417.00;10502492;28;1857;-69
2022/01/15 17:58:31;;;;;;;;;;;0.00;99.90;;;-1.12;100.00;96430.09;10494074;28;2037;-71
2022/01/15 18:03:34;;;;;;;;;;;0.00;99.90;;;-0.99;100.00;96431.28;10498927;28;1498;-69
2022/01/15 18:08:37;;;;;;;;;;;0.10;99.90;;;-1.18;100.00;96437.94;10497356;28;1825;-69
2022/01/15 18:13:40;;;;;;;;;;;0.00;99.90;;;-1.14;100.00;96437.41;10493900;28;1876;-69
2022/01/15 18:18:44;;;;;;;;;;;-0.10;99.90;;;-1.15;100.00;96433.09;10487153;28;1902;-68
2022/01/15 18:23:47;;;;;;;;;;;0.00;99.90;;;-0.93;100.00;96436.63;10480120;28;1848;-68
2022/01/15 18:28:52;;;;;;;;;;;0.00;99.90;;;-0.87;100.00;96445.63;10492231;28;1813;-68
2022/01/15 18:33:57;;;;;;;;;;;0.20;99.90;;;-0.70;100.00;96440.91;10482530;28;2196;-69
2022/01/15 18:39:01;;;;;;;;;;;0.30;99.90;;;-0.51;100.00;96439.50;10468153;28;1980;-68
2022/01/15 18:44:04;;;;;;;;;;;0.40;99.90;;;-0.37;100.00;96438.66;10461589;28;1844;-68
2022/01/15 18:49:07;;;;;;;;;;;0.50;99.90;;;-0.37;100.00;96428.88;10457517;28;1912;-69
2022/01/15 18:54:11;;;;;;;;;;;0.60;99.90;;;-0.52;100.00;96422.03;10458652;28;1899;-69
2022/01/15 18:59:15;;;;;;;;;;;0.60;99.90;;;-0.81;100.00;96418.50;10475445;28;1882;-67
2022/01/15 19:04:19;;;;;;;;;;;0.40;99.90;;;-1.11;100.00;96417.72;10477920;28;1839;-68
2022/01/15 19:09:22;;;;;;;;;;;0.10;99.90;;;-1.22;100.00;96397.91;10469255;28;1983;-69
2022/01/15 19:14:26;;;;;;;;;;;-0.10;99.90;;;-0.94;100.00;96399.88;10464733;28;1934;-70
2022/01/15 19:19:29;;;;;;;;;;;-0.10;99.90;;;-0.91;100.00;96407.41;10464313;28;1866;-70
2022/01/15 19:24:32;;;;;;;;;;;0.10;99.90;;;-0.97;100.00;96414.22;10465253;28;1836;-68
2022/01/15 19:29:35;;;;;;;;;;;0.20;99.90;;;-1.24;100.00;96428.94;10469841;28;1810;-71
2022/01/15 19:34:38;;;;;;;;;;;0.10;99.90;;;-0.97;100.00;96489.94;10466001;28;1910;-70
2022/01/15 19:39:42;;;;;;;;;;;0.00;99.90;;;-0.97;100.00;96534.81;10466215;28;1864;-68
2022/01/15 19:44:45;;;;;;;;;;;0.10;99.90;;;-0.93;100.00;96439.25;10467740;28;2037;-70
2022/01/15 19:49:49;;;;;;;;;;;0.20;99.90;;;-0.90;100.00;96378.16;10485282;28;1959;-68
2022/01/15 19:55:06;;;;;;;;;;;0.10;99.90;;;-0.77;100.00;96377.50;10480847;28;1963;-69
2022/01/15 20:00:09;;;;;;;;;;;0.20;99.90;;;-0.77;100.00;96319.41;10481793;28;1852;-69
2022/01/15 20:05:16;;;;;;;;;;;0.20;99.90;;;-0.75;100.00;96325.34;10473923;28;1745;-70
2022/01/15 20:10:20;;;;;;;;;;;0.30;99.90;;;-0.62;100.00;96338.66;10476255;28;2190;-70
2022/01/15 20:15:25;;;;;;;;;;;0.30;99.90;;;-0.60;100.00;96347.19;10473932;28;1953;-70
2022/01/15 20:20:28;;;;;;;;;;;0.40;99.90;;;-0.48;100.00;96365.19;10463190;28;1843;-68
2022/01/15 20:25:31;;;;;;;;;;;0.40;99.90;;;-0.61;100.00;96387.81;10458632;28;1865;-69
2022/01/15 20:30:34;;;;;;;;;;;0.50;99.90;;;-0.73;100.00;96364.75;10461930;28;1935;-67
2022/01/15 20:35:38;;;;;;;;;;;0.50;99.90;;;-0.78;100.00;96328.34;10463298;28;2208;-71
2022/01/15 20:40:41;;;;;;;;;;;0.30;99.90;;;-0.71;100.00;96354.81;10460994;28;2033;-69
2022/01/15 20:45:45;;;;;;;;;;;0.30;99.90;;;-0.98;100.00;96364.28;10455465;28;1844;-68
2022/01/15 20:50:50;;;;;;;;;;;0.30;99.90;;;-0.83;100.00;96333.38;10455157;28;1889;-68
2022/01/15 20:55:54;;;;;;;;;;;0.10;99.90;;;-1.07;100.00;96358.31;10457077;28;1991;-69
2022/01/15 21:00:57;;;;;;;;;;;0.20;99.90;;;-1.07;100.00;96344.31;10464189;28;1810;-69
2022/01/15 21:06:02;;;;;;;;;;;0.00;99.90;;;-0.92;100.00;96355.63;10459481;28;1749;-70
2022/01/15 21:11:04;;;;;;;;;;;0.10;99.90;;;-1.07;100.00;96354.88;10459939;28;1803;-70
2022/01/15 21:16:08;;;;;;;;;;;0.00;99.90;;;-1.07;100.00;96349.59;10485189;28;2343;-68
2022/01/15 21:21:12;;;;;;;;;;;0.00;99.90;;;-1.09;100.00;96347.13;10467200;28;1844;-70
2022/01/15 21:26:14;;;;;;;;;;;0.00;99.90;;;-1.20;100.00;96345.81;10461877;28;1913;-69
2022/01/15 21:31:19;;;;;;;;;;;-0.10;99.90;;;-1.12;100.00;96337.75;10464616;28;1782;-70
2022/01/15 21:36:24;;;;;;;;;;;-0.10;99.90;;;-1.11;100.00;96313.00;10466064;28;1910;-69
2022/01/15 21:41:29;;;;;;;;;;;-0.10;99.90;;;-1.23;100.00;96340.88;10465470;28;1931;-69
2022/01/15 21:46:32;;;;;;;;;;;-0.10;99.90;;;-1.19;100.00;96357.97;10473233;28;1829;-69
2022/01/15 21:51:35;;;;;;;;;;;-0.20;99.90;;;-1.29;100.00;96360.09;10462224;28;1916;-68
2022/01/15 21:56:39;;;;;;;;;;;-0.10;99.90;;;-1.27;100.00;96376.56;10464351;28;1935;-68
2022/01/15 22:01:42;;;;;;;;;;;-0.20;99.90;;;-1.18;100.00;96364.88;10462850;28;1836;-69
2022/01/15 22:06:46;;;;;;;;;;;-0.10;99.90;;;-1.15;100.00;96345.22;10461792;28;1883;-70
2022/01/15 22:11:50;;;;;;;;;;;-0.10;99.90;;;-1.04;100.00;96330.72;10461274;28;1832;-70
2022/01/15 22:16:53;;;;;;;;;;;0.00;99.90;;;-1.12;100.00;96336.94;10465755;28;1953;-69
2022/01/15 22:21:56;;;;;;;;;;;0.10;99.90;;;-1.07;100.00;96334.56;10470961;28;1784;-70
2022/01/15 22:27:00;;;;;;;;;;;0.00;99.90;;;-0.90;100.00;96345.69;10459401;28;1829;-69
2022/01/15 22:32:03;;;;;;;;;;;0.10;99.90;;;-0.94;100.00;96331.25;10468907;28;1773;-69
2022/01/15 22:37:07;;;;;;;;;;;0.10;99.90;;;-1.19;100.00;96347.44;10458360;28;2009;-69
2022/01/15 22:42:10;;;;;;;;;;;0.00;99.90;;;-1.39;100.00;96336.66;10460692;28;1836;-69
2022/01/15 22:47:13;;;;;;;;;;;-0.20;99.90;;;-1.36;100.00;96330.19;10463104;28;1882;-68
2022/01/15 22:52:16;;;;;;;;;;;-0.30;99.90;;;-1.40;100.00;96342.09;10461286;28;1850;-70
2022/01/15 22:57:20;;;;;;;;;;;-0.30;99.90;;;-1.38;100.00;96340.09;10463284;28;1915;-69
2022/01/15 23:02:23;;;;;;;;;;;-0.30;99.90;;;-1.41;100.00;96324.63;10461709;28;1909;-70
2022/01/15 23:07:27;;;;;;;;;;;-0.30;99.90;;;-1.36;100.00;96330.19;10460727;28;1802;-68
2022/01/15 23:12:31;;;;;;;;;;;-0.30;99.90;;;-1.39;100.00;96341.13;10460917;28;2704;-69
2022/01/15 23:17:34;;;;;;;;;;;-0.30;99.90;;;-1.08;100.00;96327.66;10472601;28;1910;-69
2022/01/15 23:22:37;;;;;;;;;;;-0.20;99.90;;;-0.82;100.00;96327.94;10466512;28;2380;-69
2022/01/15 23:27:40;;;;;;;;;;;0.00;99.90;;;-0.73;100.00;96310.13;10461544;28;1978;-70
2022/01/15 23:32:44;;;;;;;;;;;0.20;99.90;;;-0.65;100.00;96302.06;10465169;28;1832;-67
2022/01/15 23:37:47;;;;;;;;;;;0.30;99.90;;;-0.49;100.00;96306.28;10456320;28;1991;-69
2022/01/15 23:42:50;;;;;;;;;;;0.40;99.90;;;-0.62;100.00;96296.41;10465876;28;1871;-69
2022/01/15 23:47:54;;;;;;;;;;;0.40;99.90;;;-0.57;100.00;96301.13;10471724;28;1837;-70
2022/01/15 23:52:57;;;;;;;;;;;0.40;99.90;;;-0.70;100.00;96301.84;10466671;28;1881;-69
2022/01/15 23:58:00;;;;;;;;;;;0.50;99.90;;;-0.67;100.00;96303.28;10458081;28;2462;-70
